Time;durP1;ratioP1;P1;durP2;ratioP2;P2;SDS_P1;SDS_P2;PMS_P1;PMS_P2;Temp;Humidity;BMP_temperature;BMP_pressure;BME280_temperature;BME280_humidity;BME280_pressure;Samples;Min_cycle;Max_cycle;Signal;HPM_P1;HPM_P2
2022/11/18 00:02:27;;;;;;;45.23;25.30;;;1.50;99.90;;;;;;5181491;28;20204;-46
2022/11/18 00:04:58;;;;;;;34.93;21.60;;;1.50;99.90;;;;;;5198308;28;20173;-48
2022/11/18 00:07:29;;;;;;;34.03;21.13;;;1.50;99.90;;;;;;5186087;28;20559;-47
2022/11/18 00:09:59;;;;;;;36.67;22.30;;;1.40;99.90;;;;;;5195029;28;20191;-49
2022/11/18 00:15:19;;;;;;;38.97;22.33;;;1.50;99.90;;;;;;5197324;28;20268;-48
2022/11/18 00:17:49;;;;;;;35.77;21.83;;;1.40;99.90;;;;;;5182627;28;20467;-47
2022/11/18 00:20:20;;;;;;;40.90;22.07;;;1.40;99.90;;;;;;5184141;28;20661;-47
2022/11/18 00:22:51;;;;;;;35.90;21.30;;;1.40;99.90;;;;;;5188305;28;20697;-48
2022/11/18 00:25:21;;;;;;;37.90;21.93;;;1.40;99.90;;;;;;5186760;28;20187;-47
2022/11/18 00:27:53;;;;;;;34.90;21.50;;;1.40;99.90;;;;;;5181062;28;20176;-46
2022/11/18 00:30:24;;;;;;;35.60;21.20;;;1.50;99.90;;;;;;5187545;28;20239;-46
2022/11/18 00:32:55;;;;;;;33.63;20.93;;;1.50;99.90;;;;;;5183529;28;20977;-45
2022/11/18 00:35:25;;;;;;;32.83;20.43;;;1.40;99.90;;;;;;5186710;28;20195;-46
2022/11/18 00:37:56;;;;;;;33.80;20.23;;;1.50;99.90;;;;;;5180353;28;20522;-46
2022/11/18 00:40:26;;;;;;;32.47;20.20;;;1.50;99.90;;;;;;5185655;28;20184;-46
2022/11/18 00:42:57;;;;;;;33.37;18.60;;;1.50;99.90;;;;;;5193904;28;20687;-48
2022/11/18 00:45:28;;;;;;;28.97;20.07;;;1.50;99.90;;;;;;5182248;28;20191;-49
2022/11/18 00:47:58;;;;;;;29.50;20.13;;;1.40;99.90;;;;;;5185806;28;20236;-47
2022/11/18 00:50:29;;;;;;;29.23;18.70;;;1.40;99.90;;;;;;5185441;28;20246;-48
2022/11/18 00:53:00;;;;;;;32.57;20.97;;;1.40;99.90;;;;;;5196464;28;20235;-47
2022/11/18 00:55:30;;;;;;;27.77;19.40;;;1.40;99.90;;;;;;5199700;28;20196;-47
2022/11/18 00:58:01;;;;;;;40.47;19.33;;;1.30;99.90;;;;;;5189901;28;20212;-47
2022/11/18 01:00:32;;;;;;;29.07;19.00;;;1.40;99.90;;;;;;5186427;28;20183;-46
2022/11/18 01:03:02;;;;;;;29.03;19.57;;;1.30;99.90;;;;;;5180540;28;20197;-47
2022/11/18 01:05:33;;;;;;;33.10;19.13;;;1.30;99.90;;;;;;5183419;28;20188;-47
2022/11/18 01:08:05;;;;;;;28.23;18.60;;;1.20;99.90;;;;;;5180162;28;20190;-48
2022/11/18 01:10:37;;;;;;;26.97;19.00;;;1.20;99.90;;;;;;5179449;28;20190;-49
2022/11/18 01:13:19;;;;;;;30.50;19.50;;;1.20;99.90;;;;;;5184205;28;20787;-47
2022/11/18 01:15:55;;;;;;;29.77;20.03;;;1.20;99.90;;;;;;5186714;28;20418;-48
2022/11/18 01:18:29;;;;;;;30.53;20.30;;;1.20;99.90;;;;;;5175354;28;20478;-48
2022/11/18 01:21:01;;;;;;;31.63;19.50;;;1.10;99.90;;;;;;5192862;28;20484;-47
2022/11/18 01:23:32;;;;;;;28.47;18.60;;;1.10;99.90;;;;;;5186579;28;20432;-48
2022/11/18 01:26:05;;;;;;;27.60;18.57;;;1.20;99.90;;;;;;5188400;28;20509;-48
2022/11/18 01:28:36;;;;;;;28.50;19.07;;;1.10;99.90;;;;;;5184918;28;20185;-47
2022/11/18 01:31:09;;;;;;;30.20;20.13;;;1.10;99.90;;;;;;5195811;28;20440;-48
2022/11/18 01:33:41;;;;;;;33.67;21.40;;;1.00;99.90;;;;;;5193449;28;20271;-47
2022/11/18 01:36:15;;;;;;;34.27;19.43;;;1.00;99.90;;;;;;5190222;28;20447;-47
2022/11/18 01:38:46;;;;;;;30.30;19.50;;;1.10;99.90;;;;;;5183540;28;20509;-47
2022/11/18 01:41:19;;;;;;;34.77;21.53;;;1.00;99.90;;;;;;5183043;28;20484;-49
2022/11/18 01:43:49;;;;;;;26.77;18.90;;;1.00;99.90;;;;;;5188986;28;20438;-48
2022/11/18 01:46:22;;;;;;;24.33;17.90;;;1.00;99.90;;;;;;5184696;28;20930;-49
2022/11/18 01:49:15;;;;;;;30.47;19.63;;;0.90;99.90;;;;;;5180091;28;20266;-47
2022/11/18 01:51:56;;;;;;;33.73;21.00;;;0.90;99.90;;;;;;5176103;28;20546;-49
2022/11/18 01:54:39;;;;;;;34.13;21.23;;;0.90;99.90;;;;;;5200553;28;20436;-47
2022/11/18 01:57:16;;;;;;;32.30;20.70;;;0.90;99.90;;;;;;5199288;28;20454;-47
2022/11/18 01:59:49;;;;;;;32.43;20.33;;;0.90;99.90;;;;;;5203119;28;20437;-48
2022/11/18 02:02:21;;;;;;;34.00;20.43;;;0.90;99.90;;;;;;5184693;28;20491;-49
2022/11/18 02:04:54;;;;;;;32.40;20.80;;;0.90;99.90;;;;;;5194021;28;20431;-48
2022/11/18 02:07:25;;;;;;;30.63;20.80;;;0.90;99.90;;;;;;5188250;28;20772;-49
2022/11/18 02:09:59;;;;;;;35.30;20.20;;;0.90;99.90;;;;;;5178856;28;20426;-49
2022/11/18 02:12:30;;;;;;;31.60;19.77;;;0.90;99.90;;;;;;5176254;28;20458;-47
2022/11/18 02:15:01;;;;;;;31.90;19.77;;;0.90;99.90;;;;;;5200320;28;20438;-48
2022/11/18 02:17:47;;;;;;;30.63;18.57;;;0.90;99.90;;;;;;5196652;28;20482;-46
2022/11/18 02:20:28;;;;;;;38.77;21.10;;;0.90;99.90;;;;;;5187167;28;20439;-48
2022/11/18 02:23:17;;;;;;;29.17;18.70;;;0.90;99.90;;;;;;5189050;28;20482;-45
2022/11/18 02:26:09;;;;;;;29.80;20.00;;;0.90;99.90;;;;;;5186425;28;20443;-48
2022/11/18 02:28:51;;;;;;;31.87;19.53;;;0.90;99.90;;;;;;5187526;28;20413;-46
2022/11/18 02:31:34;;;;;;;26.67;18.77;;;0.90;99.90;;;;;;5194540;28;20971;-47
2022/11/18 02:34:21;;;;;;;32.30;19.20;;;0.90;99.90;;;;;;5178529;28;20451;-49
2022/11/18 02:37:02;;;;;;;31.53;21.60;;;0.90;99.90;;;;;;5186801;28;20492;-48
2022/11/18 02:39:38;;;;;;;35.00;20.60;;;0.90;99.90;;;;;;5200932;28;20526;-49
2022/11/18 02:42:11;;;;;;;29.20;19.57;;;0.90;99.90;;;;;;5184075;28;20878;-49
2022/11/18 02:44:48;;;;;;;27.13;18.93;;;0.90;99.90;;;;;;5184101;28;20779;-47
2022/11/18 02:47:21;;;;;;;27.70;17.80;;;0.80;99.90;;;;;;5185038;28;20435;-46
2022/11/18 02:49:57;;;;;;;35.10;21.47;;;0.80;99.90;;;;;;5185568;28;20520;-46
2022/11/18 02:52:31;;;;;;;29.43;19.57;;;0.70;99.90;;;;;;5183580;28;20997;-50
2022/11/18 02:55:05;;;;;;;38.83;21.40;;;0.80;99.90;;;;;;5189600;28;20433;-47
2022/11/18 02:57:38;;;;;;;31.10;21.00;;;0.70;99.90;;;;;;5174695;28;20991;-46
2022/11/18 03:00:10;;;;;;;34.83;21.03;;;0.70;99.90;;;;;;5183542;28;20458;-47
2022/11/18 03:02:46;;;;;;;35.23;20.90;;;0.70;99.90;;;;;;5177141;28;20455;-47
2022/11/18 03:05:42;;;;;;;31.53;21.60;;;0.70;99.90;;;;;;5186094;28;20431;-51
2022/11/18 03:08:18;;;;;;;33.50;22.07;;;0.60;99.90;;;;;;5185794;28;20432;-46
2022/11/18 03:10:56;;;;;;;31.13;20.63;;;0.50;99.90;;;;;;5178835;28;20429;-46
2022/11/18 03:13:35;;;;;;;37.50;22.60;;;0.50;99.90;;;;;;5180449;28;20419;-46
2022/11/18 03:16:11;;;;;;;38.33;24.17;;;0.50;99.90;;;;;;5189809;28;20476;-48
2022/11/18 03:18:56;;;;;;;35.23;22.33;;;0.50;99.90;;;;;;5180354;28;20533;-46
2022/11/18 03:21:50;;;;;;;37.60;23.00;;;0.50;99.90;;;;;;5184848;28;20471;-46
2022/11/18 03:24:28;;;;;;;36.27;24.00;;;0.50;99.90;;;;;;5191637;28;20431;-46
2022/11/18 03:27:10;;;;;;;43.83;25.37;;;0.50;99.90;;;;;;5182836;28;20446;-46
2022/11/18 03:29:49;;;;;;;34.83;22.43;;;0.40;99.90;;;;;;5188957;28;20467;-47
2022/11/18 03:32:30;;;;;;;37.33;24.40;;;0.40;99.90;;;;;;5182158;28;20522;-47
2022/11/18 03:35:16;;;;;;;37.70;23.83;;;0.40;99.90;;;;;;5189113;28;20435;-48
2022/11/18 03:37:51;;;;;;;40.40;23.63;;;0.20;99.90;;;;;;5183474;28;20542;-48
2022/11/18 03:40:26;;;;;;;46.97;26.40;;;0.30;99.90;;;;;;5180321;28;20443;-46
2022/11/18 03:43:12;;;;;;;41.30;25.70;;;0.30;99.90;;;;;;5179277;28;20454;-47
2022/11/18 03:45:59;;;;;;;36.90;25.40;;;0.30;99.90;;;;;;5189384;28;20485;-46
2022/11/18 03:48:34;;;;;;;43.70;26.13;;;0.20;99.90;;;;;;5186006;28;20443;-47
2022/11/18 03:51:08;;;;;;;40.70;25.83;;;0.20;99.90;;;;;;5181460;28;20498;-46
2022/11/18 03:53:51;;;;;;;41.97;25.50;;;0.20;99.90;;;;;;5176781;28;20445;-47
2022/11/18 03:56:27;;;;;;;47.47;26.03;;;0.30;99.90;;;;;;5183516;28;20439;-49
2022/11/18 03:59:10;;;;;;;48.80;27.73;;;0.20;99.90;;;;;;5181963;28;20470;-48
2022/11/18 04:02:05;;;;;;;60.13;28.40;;;0.20;99.90;;;;;;5188738;28;20446;-50
2022/11/18 04:04:36;;;;;;;48.30;27.27;;;0.20;99.90;;;;;;5175823;28;20497;-46
2022/11/18 04:07:15;;;;;;;44.87;27.77;;;0.10;99.90;;;;;;5186371;28;20443;-50
2022/11/18 04:10:03;;;;;;;50.20;28.17;;;0.10;99.90;;;;;;5184128;28;20942;-48
2022/11/18 04:12:40;;;;;;;61.23;31.03;;;0.00;99.90;;;;;;5186643;28;20456;-48
2022/11/18 04:15:11;;;;;;;60.43;31.60;;;0.00;99.90;;;;;;5186013;28;20482;-47
2022/11/18 04:17:42;;;;;;;61.10;30.03;;;0.00;99.90;;;;;;5180710;28;20472;-47
2022/11/18 04:20:16;;;;;;;56.37;31.93;;;0.00;99.90;;;;;;5182724;28;20521;-47
2022/11/18 04:22:47;;;;;;;64.43;30.30;;;0.00;99.90;;;;;;5189743;28;20209;-50
2022/11/18 04:25:18;;;;;;;55.67;32.17;;;-0.10;99.90;;;;;;5185282;28;20430;-46
2022/11/18 04:27:49;;;;;;;61.47;32.90;;;-0.10;99.90;;;;;;5183508;28;20191;-45
2022/11/18 04:30:19;;;;;;;59.53;34.07;;;-0.10;99.90;;;;;;5182545;28;20184;-49
2022/11/18 04:32:50;;;;;;;60.03;32.17;;;-0.10;99.90;;;;;;5186877;28;20512;-46
2022/11/18 04:35:21;;;;;;;58.87;33.20;;;-0.10;99.90;;;;;;5187098;28;20613;-46
2022/11/18 04:37:52;;;;;;;62.23;35.10;;;-0.10;99.90;;;;;;5184258;28;20200;-49
2022/11/18 04:40:22;;;;;;;72.93;36.50;;;-0.10;99.90;;;;;;5189581;28;20216;-48
2022/11/18 04:42:53;;;;;;;63.07;34.93;;;-0.20;99.90;;;;;;5174101;28;20519;-46
2022/11/18 04:45:24;;;;;;;60.73;33.40;;;-0.20;99.90;;;;;;5184549;28;20601;-46
2022/11/18 04:47:54;;;;;;;60.50;32.40;;;-0.10;99.90;;;;;;5182539;28;20181;-46
2022/11/18 04:50:25;;;;;;;59.83;33.60;;;-0.20;99.90;;;;;;5184167;28;20203;-47
2022/11/18 04:52:56;;;;;;;60.50;31.97;;;-0.20;99.90;;;;;;5187882;28;20287;-48
2022/11/18 04:55:27;;;;;;;58.17;31.67;;;0.00;99.90;;;;;;5191601;28;20583;-47
2022/11/18 04:57:57;;;;;;;53.27;30.03;;;0.00;99.90;;;;;;5178520;28;20211;-47
2022/11/18 05:00:28;;;;;;;64.17;33.43;;;-0.10;99.90;;;;;;5180015;28;20440;-47
2022/11/18 05:02:59;;;;;;;53.23;30.27;;;-0.10;99.90;;;;;;5187326;28;20740;-48
2022/11/18 05:05:29;;;;;;;58.33;31.37;;;-0.10;99.90;;;;;;5187510;28;20181;-46
2022/11/18 05:08:00;;;;;;;57.83;31.57;;;-0.20;99.90;;;;;;5191202;28;20543;-47
2022/11/18 05:10:31;;;;;;;56.30;32.10;;;-0.20;99.90;;;;;;5186697;28;20236;-46
2022/11/18 05:13:01;;;;;;;61.30;33.27;;;-0.20;99.90;;;;;;5189577;28;20731;-48
2022/11/18 05:15:32;;;;;;;51.70;29.47;;;-0.20;99.90;;;;;;5170442;28;20184;-46
2022/11/18 05:18:03;;;;;;;57.57;31.17;;;-0.20;99.90;;;;;;5173101;28;20209;-48
2022/11/18 05:20:33;;;;;;;56.93;31.17;;;-0.20;99.90;;;;;;5185618;28;20189;-46
2022/11/18 05:23:04;;;;;;;54.20;29.53;;;-0.20;99.90;;;;;;5189987;28;20223;-47
2022/11/18 05:25:35;;;;;;;58.80;30.63;;;-0.20;99.90;;;;;;5190561;28;20242;-49
2022/11/18 05:28:05;;;;;;;54.60;29.20;;;-0.20;99.90;;;;;;5184934;28;20189;-46
2022/11/18 05:30:36;;;;;;;45.10;26.27;;;-0.20;99.90;;;;;;5190253;28;20543;-53
2022/11/18 05:33:07;;;;;;;45.87;27.77;;;-0.20;99.90;;;;;;5181483;28;20189;-47
2022/11/18 05:35:37;;;;;;;53.07;27.90;;;-0.20;99.90;;;;;;5190300;28;20256;-46
2022/11/18 05:38:08;;;;;;;48.20;28.50;;;-0.20;99.90;;;;;;5188644;28;20655;-49
2022/11/18 05:40:42;;;;;;;44.50;27.53;;;-0.10;99.90;;;;;;5191470;28;20542;-49
2022/11/18 05:43:12;;;;;;;51.67;28.37;;;-0.10;99.90;;;;;;5188756;28;20212;-46
2022/11/18 05:45:43;;;;;;;47.53;26.70;;;-0.10;99.90;;;;;;5191592;28;20958;-47
2022/11/18 05:48:14;;;;;;;42.37;25.07;;;-0.10;99.90;;;;;;5189143;28;20548;-48
2022/11/18 05:50:50;;;;;;;43.30;25.20;;;-0.10;99.90;;;;;;5186129;28;20189;-48
2022/11/18 05:53:24;;;;;;;43.13;24.20;;;-0.10;99.90;;;;;;5188233;28;20188;-46
2022/11/18 05:56:15;;;;;;;43.73;23.80;;;-0.10;99.90;;;;;;5193063;28;20411;-48
2022/11/18 05:58:46;;;;;;;41.73;22.27;;;-0.10;99.90;;;;;;5179588;28;20562;-48
2022/11/18 06:01:24;;;;;;;40.00;23.27;;;-0.10;99.90;;;;;;5190172;28;20493;-48
2022/11/18 06:03:56;;;;;;;41.00;23.27;;;-0.20;99.90;;;;;;5180765;28;20506;-48
2022/11/18 06:06:26;;;;;;;39.10;21.17;;;-0.20;99.90;;;;;;5173124;28;20442;-46
2022/11/18 06:09:04;;;;;;;30.07;19.87;;;-0.30;99.90;;;;;;5180579;28;20448;-47
2022/11/18 06:11:47;;;;;;;32.63;20.13;;;-0.30;99.90;;;;;;5195191;28;20203;-47
2022/11/18 06:14:25;;;;;;;37.83;20.17;;;-0.30;99.90;;;;;;5188577;28;20423;-48
2022/11/18 06:17:01;;;;;;;32.73;19.13;;;-0.30;99.90;;;;;;5187023;28;20437;-47
2022/11/18 06:19:33;;;;;;;27.40;18.03;;;-0.20;99.90;;;;;;5191008;28;20454;-49
2022/11/18 06:22:05;;;;;;;30.77;17.90;;;-0.30;99.90;;;;;;5177878;28;21013;-48
2022/11/18 06:24:36;;;;;;;25.63;17.33;;;-0.20;99.90;;;;;;5190189;28;20431;-48
2022/11/18 06:27:07;;;;;;;30.20;18.30;;;-0.20;99.90;;;;;;5198305;28;20986;-48
2022/11/18 06:29:37;;;;;;;29.17;18.33;;;-0.30;99.90;;;;;;5194955;28;20532;-48
2022/11/18 06:32:08;;;;;;;30.93;19.90;;;-0.30;99.90;;;;;;5204318;28;20199;-48
2022/11/18 06:34:39;;;;;;;27.93;18.43;;;-0.30;99.90;;;;;;5195827;28;20734;-47
2022/11/18 06:37:19;;;;;;;27.83;17.87;;;-0.30;99.90;;;;;;5191113;28;20208;-47
2022/11/18 06:39:50;;;;;;;27.00;17.43;;;-0.30;99.90;;;;;;5193579;28;20193;-48
2022/11/18 06:45:10;;;;;;;29.30;18.80;;;-0.40;99.90;;;;;;5189239;28;20191;-47
2022/11/18 06:47:40;;;;;;;26.10;17.13;;;-0.30;99.90;;;;;;5185991;28;20440;-47
2022/11/18 06:50:11;;;;;;;31.70;17.70;;;-0.40;99.90;;;;;;5189260;28;20192;-47
2022/11/18 06:52:41;;;;;;;45.73;18.53;;;-0.30;99.90;;;;;;5187681;28;20583;-48
2022/11/18 06:55:12;;;;;;;42.63;19.33;;;-0.30;99.90;;;;;;5182222;28;20188;-49
2022/11/18 06:57:43;;;;;;;28.60;18.70;;;-0.40;99.90;;;;;;5186188;28;20571;-48
2022/11/18 07:00:14;;;;;;;28.63;19.00;;;-0.40;99.90;;;;;;5193856;28;20182;-49
2022/11/18 07:02:45;;;;;;;28.17;17.90;;;-0.40;99.90;;;;;;5176470;28;20200;-47
2022/11/18 07:05:16;;;;;;;33.67;18.83;;;-0.30;99.90;;;;;;5178308;28;20811;-51
2022/11/18 07:07:46;;;;;;;29.33;18.00;;;-0.40;99.90;;;;;;5190868;28;20187;-49
2022/11/18 07:10:17;;;;;;;30.37;18.40;;;-0.40;99.90;;;;;;5190979;28;20192;-48
2022/11/18 07:12:48;;;;;;;32.40;17.70;;;-0.30;99.90;;;;;;5187656;28;20220;-47
2022/11/18 07:15:18;;;;;;;28.10;18.00;;;-0.40;99.90;;;;;;5180760;28;20254;-47
2022/11/18 07:17:49;;;;;;;30.53;18.97;;;-0.40;99.90;;;;;;5193012;28;20276;-48
2022/11/18 07:20:20;;;;;;;33.97;18.90;;;-0.40;99.90;;;;;;5198772;28;20677;-50
2022/11/18 07:22:53;;;;;;;30.17;18.77;;;-0.40;99.90;;;;;;5185746;28;20274;-48
2022/11/18 07:25:24;;;;;;;31.30;19.47;;;-0.40;99.90;;;;;;5193413;28;20188;-47
2022/11/18 07:27:55;;;;;;;31.77;17.50;;;-0.50;99.90;;;;;;5188368;28;20431;-48
2022/11/18 07:30:25;;;;;;;28.10;18.30;;;-0.40;99.90;;;;;;5183807;28;20176;-47
2022/11/18 07:32:56;;;;;;;32.30;18.00;;;-0.40;99.90;;;;;;5182250;28;20204;-47
2022/11/18 07:35:27;;;;;;;27.43;17.03;;;-0.40;99.90;;;;;;5202141;28;20183;-47
2022/11/18 07:37:57;;;;;;;28.37;18.60;;;-0.30;99.90;;;;;;5169130;28;20204;-47
2022/11/18 07:40:28;;;;;;;30.97;19.00;;;-0.40;99.90;;;;;;5187458;28;20192;-49
2022/11/18 07:42:58;;;;;;;34.30;19.97;;;-0.40;99.90;;;;;;5183212;28;20204;-49
2022/11/18 07:45:29;;;;;;;33.20;19.90;;;-0.30;99.90;;;;;;5188038;28;20199;-47
2022/11/18 07:48:00;;;;;;;32.50;19.40;;;-0.30;99.90;;;;;;5177037;28;20221;-52
2022/11/18 07:50:31;;;;;;;30.67;18.07;;;-0.20;99.90;;;;;;5205774;28;20200;-49
2022/11/18 07:53:02;;;;;;;34.43;18.70;;;-0.20;99.90;;;;;;5176991;28;20447;-47
2022/11/18 07:55:32;;;;;;;30.07;19.00;;;-0.30;99.90;;;;;;5180736;28;20180;-47
2022/11/18 07:58:03;;;;;;;34.33;18.73;;;-0.30;99.90;;;;;;5182490;28;20257;-47
2022/11/18 08:00:34;;;;;;;31.80;18.80;;;-0.30;99.90;;;;;;5193514;28;20211;-49
2022/11/18 08:03:05;;;;;;;32.47;19.60;;;-0.40;99.90;;;;;;5195267;28;20217;-48
2022/11/18 08:05:36;;;;;;;34.10;18.23;;;-0.40;99.90;;;;;;5183065;28;20203;-47
2022/11/18 08:08:06;;;;;;;33.50;18.53;;;-0.30;99.90;;;;;;5196788;28;20415;-49
2022/11/18 08:10:37;;;;;;;29.10;19.57;;;-0.30;99.90;;;;;;5186665;28;20181;-47
2022/11/18 08:13:07;;;;;;;30.57;18.63;;;-0.20;99.90;;;;;;5184816;28;20188;-48
2022/11/18 08:15:42;;;;;;;28.63;17.73;;;-0.30;99.90;;;;;;5187527;28;20176;-46
2022/11/18 08:18:13;;;;;;;31.33;18.50;;;-0.40;99.90;;;;;;5185602;28;20198;-47
2022/11/18 08:20:44;;;;;;;34.77;18.10;;;-0.50;99.90;;;;;;5186548;28;20419;-48
2022/11/18 08:23:15;;;;;;;33.67;18.47;;;-0.30;99.90;;;;;;5195146;28;20181;-49
2022/11/18 08:25:47;;;;;;;26.33;17.23;;;-0.30;99.90;;;;;;5183311;28;20805;-46
2022/11/18 08:28:17;;;;;;;28.87;17.57;;;-0.30;99.90;;;;;;5196534;28;20462;-47
2022/11/18 08:30:48;;;;;;;28.70;17.20;;;-0.30;99.90;;;;;;5186529;28;20483;-48
2022/11/18 08:33:19;;;;;;;30.13;18.10;;;-0.40;99.90;;;;;;5185839;28;20216;-48
2022/11/18 08:35:49;;;;;;;29.73;18.10;;;-0.40;99.90;;;;;;5183275;28;20220;-48
2022/11/18 08:38:20;;;;;;;27.50;15.93;;;-0.50;99.90;;;;;;5179834;28;20211;-51
2022/11/18 08:40:51;;;;;;;31.63;17.17;;;-0.50;99.90;;;;;;5197142;28;20559;-49
2022/11/18 08:43:21;;;;;;;24.50;15.93;;;-0.60;99.90;;;;;;5192511;28;20181;-51
2022/11/18 08:45:52;;;;;;;27.77;16.60;;;-0.60;99.90;;;;;;5196538;28;20198;-52
2022/11/18 08:48:23;;;;;;;25.37;17.40;;;-0.60;99.90;;;;;;5184133;28;20204;-52
2022/11/18 08:50:53;;;;;;;24.53;16.37;;;-0.70;99.90;;;;;;5201196;28;20188;-50
2022/11/18 08:53:24;;;;;;;29.73;17.87;;;-0.70;99.90;;;;;;5184121;28;20246;-51
2022/11/18 08:55:59;;;;;;;27.40;16.70;;;-0.70;99.90;;;;;;5195306;28;20191;-50
2022/11/18 08:58:30;;;;;;;30.50;18.50;;;-0.60;99.90;;;;;;5183713;28;20731;-52
2022/11/18 09:01:05;;;;;;;27.80;16.90;;;-0.60;99.90;;;;;;5196626;28;20458;-50
2022/11/18 09:03:37;;;;;;;26.03;17.43;;;-0.70;99.90;;;;;;5180679;28;20176;-51
2022/11/18 09:06:13;;;;;;;30.73;18.40;;;-0.70;99.90;;;;;;5190117;28;20420;-52
2022/11/18 09:08:44;;;;;;;32.63;17.70;;;-0.60;99.90;;;;;;5197073;28;20936;-50
2022/11/18 09:11:18;;;;;;;24.80;16.77;;;-0.70;99.90;;;;;;5169802;28;20444;-51
2022/11/18 09:13:57;;;;;;;26.70;16.73;;;-0.70;99.90;;;;;;5191767;28;21064;-47
2022/11/18 09:16:30;;;;;;;34.93;17.60;;;-0.70;99.90;;;;;;5191774;28;20446;-51
2022/11/18 09:19:01;;;;;;;25.97;16.00;;;-0.70;99.90;;;;;;5191158;28;20550;-51
2022/11/18 09:21:31;;;;;;;24.13;15.03;;;-0.80;99.90;;;;;;5178720;28;20574;-51
2022/11/18 09:24:04;;;;;;;24.37;14.23;;;-0.70;99.90;;;;;;5184104;28;20187;-51
2022/11/18 09:26:34;;;;;;;25.23;15.00;;;-0.60;99.90;;;;;;5188351;28;20708;-52
2022/11/18 09:29:05;;;;;;;29.50;16.23;;;-0.70;99.90;;;;;;5187964;28;20435;-50
2022/11/18 09:31:36;;;;;;;24.83;14.80;;;-0.50;99.90;;;;;;5187440;28;20673;-51
2022/11/18 09:34:09;;;;;;;24.03;14.53;;;-0.50;99.90;;;;;;5171784;28;20189;-51
2022/11/18 09:36:39;;;;;;;22.50;14.43;;;-0.40;99.90;;;;;;5186114;28;20603;-48
2022/11/18 09:39:10;;;;;;;23.20;13.63;;;-0.50;99.90;;;;;;5186127;28;20521;-52
2022/11/18 09:41:46;;;;;;;25.13;13.87;;;-0.40;99.90;;;;;;5200726;28;20212;-52
2022/11/18 09:44:54;;;;;;;24.20;13.93;;;-0.40;99.90;;;;;;5192374;28;20187;-51
2022/11/18 09:47:30;;;;;;;22.47;12.57;;;-0.50;99.90;;;;;;5201948;28;20431;-50
2022/11/18 09:50:03;;;;;;;17.43;11.83;;;-0.50;99.90;;;;;;5191500;28;20443;-52
2022/11/18 09:52:45;;;;;;;19.33;12.23;;;-0.50;99.90;;;;;;5184135;28;20514;-51
2022/11/18 09:55:17;;;;;;;16.63;10.60;;;-0.50;99.90;;;;;;5178258;28;20436;-51
2022/11/18 09:57:51;;;;;;;15.30;11.13;;;-0.50;99.90;;;;;;5182624;28;21018;-50
2022/11/18 10:00:24;;;;;;;15.00;10.27;;;-0.60;99.90;;;;;;5181890;28;20458;-52
2022/11/18 10:03:14;;;;;;;14.13;9.20;;;-0.50;99.90;;;;;;5196370;28;20500;-52
2022/11/18 10:05:57;;;;;;;11.27;8.20;;;-0.50;99.90;;;;;;5181134;28;20419;-50
2022/11/18 10:08:34;;;;;;;9.20;7.43;;;-0.50;99.90;;;;;;5193237;28;20425;-51
2022/11/18 10:11:06;;;;;;;12.20;8.23;;;-0.50;99.90;;;;;;5169776;28;20459;-51
2022/11/18 10:14:07;;;;;;;9.70;6.80;;;-0.50;99.90;;;;;;5193421;28;20863;-51
2022/11/18 10:17:23;;;;;;;7.37;6.70;;;-0.50;99.90;;;;;;5189857;28;20447;-51
2022/11/18 10:20:06;;;;;;;7.50;6.80;;;-0.60;99.90;;;;;;5187331;28;20482;-51
2022/11/18 10:22:42;;;;;;;9.37;6.30;;;-0.60;99.90;;;;;;5214386;22;20522;-48
2022/11/18 10:25:14;;;;;;;9.23;6.93;;;-0.60;99.90;;;;;;5214350;28;20432;-50
2022/11/18 10:27:47;;;;;;;8.30;6.53;;;-0.50;99.90;;;;;;5225210;28;20532;-49
2022/11/18 10:30:21;;;;;;;9.17;7.23;;;-0.50;99.90;;;;;;5215030;28;20437;-48
2022/11/18 10:33:03;;;;;;;9.30;6.97;;;-0.50;99.90;;;;;;5201412;28;20524;-48
2022/11/18 10:35:37;;;;;;;6.73;6.13;;;-0.50;99.90;;;;;;5191300;28;20434;-46
2022/11/18 10:38:14;;;;;;;11.80;7.43;;;-0.50;99.90;;;;;;5195314;28;20563;-49
2022/11/18 10:40:59;;;;;;;8.83;6.20;;;-0.50;99.90;;;;;;5195169;28;20526;-51
2022/11/18 10:43:48;;;;;;;13.83;6.90;;;-0.40;99.90;;;;;;5206112;28;20926;-48
2022/11/18 10:46:27;;;;;;;10.83;6.73;;;-0.30;99.90;;;;;;5204449;28;20434;-49
2022/11/18 10:49:07;;;;;;;12.03;6.93;;;-0.30;99.90;;;;;;5200646;28;20485;-50
2022/11/18 10:51:40;;;;;;;8.40;6.87;;;-0.40;99.90;;;;;;5201033;28;20462;-49
2022/11/18 10:54:20;;;;;;;7.43;6.67;;;-0.40;99.90;;;;;;5203298;28;20536;-49
2022/11/18 10:57:12;;;;;;;14.90;7.03;;;-0.40;99.90;;;;;;5199034;28;20430;-49
2022/11/18 10:59:52;;;;;;;6.30;5.43;;;-0.40;99.90;;;;;;5197470;28;20426;-50
2022/11/18 11:02:33;;;;;;;10.77;6.80;;;-0.50;99.90;;;;;;5204549;28;20880;-50
2022/11/18 11:05:20;;;;;;;11.37;7.67;;;-0.40;99.90;;;;;;5200354;28;20859;-48
2022/11/18 11:08:23;;;;;;;13.50;7.17;;;-0.30;99.90;;;;;;5196938;28;20581;-48
2022/11/18 11:10:56;;;;;;;8.37;7.00;;;-0.40;99.90;;;;;;5148382;28;20489;-50
2022/11/18 11:13:29;;;;;;;10.93;8.20;;;-0.40;99.90;;;;;;5195187;28;21185;-51
2022/11/18 11:16:04;;;;;;;17.20;8.07;;;-0.40;99.90;;;;;;5201293;28;20447;-49
2022/11/18 11:18:40;;;;;;;10.47;8.00;;;-0.40;99.90;;;;;;5201275;28;20822;-50
2022/11/18 11:21:15;;;;;;;13.77;9.10;;;-0.40;99.90;;;;;;5197674;28;20442;-50
2022/11/18 11:23:46;;;;;;;11.70;7.67;;;-0.30;99.90;;;;;;5204350;28;20938;-49
2022/11/18 11:26:35;;;;;;;12.50;8.40;;;-0.30;99.90;;;;;;5203568;28;20553;-48
2022/11/18 11:29:27;;;;;;;16.83;8.43;;;-0.30;99.90;;;;;;5200717;28;20291;-50
2022/11/18 11:31:57;;;;;;;13.30;8.60;;;-0.30;99.90;;;;;;5191973;28;20466;-50
2022/11/18 11:34:43;;;;;;;10.37;7.53;;;-0.10;99.90;;;;;;5203556;28;20450;-48
2022/11/18 11:37:39;;;;;;;8.33;7.33;;;-0.10;99.90;;;;;;5199935;28;20194;-49
2022/11/18 11:40:23;;;;;;;11.33;7.90;;;-0.10;99.90;;;;;;5185814;28;20963;-49
2022/11/18 11:43:06;;;;;;;11.87;7.90;;;-0.10;99.90;;;;;;5197833;28;20881;-49
2022/11/18 11:45:53;;;;;;;13.73;8.93;;;-0.10;99.90;;;;;;5201210;28;20442;-49
2022/11/18 11:48:30;;;;;;;10.27;7.50;;;0.00;99.90;;;;;;5199654;28;20424;-49
2022/11/18 11:51:17;;;;;;;7.47;6.50;;;0.10;99.90;;;;;;5200612;28;20449;-49
2022/11/18 11:54:09;;;;;;;14.00;8.47;;;0.10;99.90;;;;;;5197565;28;20450;-49
2022/11/18 11:57:00;;;;;;;10.53;7.63;;;-0.10;99.90;;;;;;5198918;28;20431;-49
2022/11/18 11:59:39;;;;;;;11.20;7.40;;;-0.10;99.90;;;;;;5195714;28;20558;-49
2022/11/18 12:03:00;;;;;;;11.03;7.33;;;0.00;99.90;;;;;;5198776;28;21035;-49
2022/11/18 12:05:39;;;;;;;8.83;7.30;;;0.10;99.90;;;;;;5161724;28;20553;-48
2022/11/18 12:08:24;;;;;;;8.07;7.20;;;0.20;99.90;;;;;;5203186;28;20492;-48
2022/11/18 12:11:26;;;;;;;10.43;7.03;;;0.10;99.90;;;;;;5189720;28;20435;-49
2022/11/18 12:14:11;;;;;;;8.47;7.17;;;0.30;99.90;;;;;;5197150;28;20443;-49
2022/11/18 12:17:10;;;;;;;9.30;6.80;;;0.30;99.90;;;;;;5194017;28;20434;-49
2022/11/18 12:19:41;;;;;;;10.40;7.13;;;0.40;99.90;;;;;;5203129;28;20488;-49
2022/11/18 12:22:13;;;;;;;9.50;6.50;;;0.50;99.90;;;;;;5203504;28;20977;-49
2022/11/18 12:24:43;;;;;;;7.03;6.30;;;0.60;99.90;;;;;;5202674;28;20581;-48
2022/11/18 12:27:38;;;;;;;6.20;5.67;;;0.60;99.90;;;;;;5193516;28;20438;-49
2022/11/18 12:30:17;;;;;;;7.70;5.07;;;0.60;99.90;;;;;;5186713;28;20192;-53
2022/11/18 12:32:55;;;;;;;9.00;6.60;;;0.40;99.90;;;;;;5202069;28;20520;-51
2022/11/18 12:35:27;;;;;;;8.40;6.20;;;0.10;99.90;;;;;;5196562;28;20438;-49
2022/11/18 12:37:59;;;;;;;7.33;6.20;;;0.00;99.90;;;;;;5195723;28;20558;-49
2022/11/18 12:40:33;;;;;;;6.37;5.80;;;-0.10;99.90;;;;;;5194818;28;20489;-48
2022/11/18 12:46:33;;;;;;;7.90;6.27;;;-0.20;99.90;;;;;;5193218;28;20461;-50
2022/11/18 12:49:23;;;;;;;8.77;5.47;;;-0.30;99.90;;;;;;5200894;28;20933;-50
2022/11/18 12:51:58;;;;;;;9.53;5.93;;;-0.30;99.90;;;;;;5195191;28;20450;-49
2022/11/18 12:54:47;;;;;;;6.87;6.27;;;-0.30;99.90;;;;;;5203424;28;20410;-47
2022/11/18 12:57:25;;;;;;;7.60;6.47;;;-0.20;99.90;;;;;;5199677;28;20881;-49
2022/11/18 12:59:56;;;;;;;6.90;5.93;;;-0.20;99.90;;;;;;5197543;28;20960;-49
2022/11/18 13:02:29;;;;;;;8.33;5.93;;;-0.20;99.90;;;;;;5200672;28;20458;-50
2022/11/18 13:05:23;;;;;;;7.10;5.77;;;-0.20;99.90;;;;;;5195141;28;20510;-49
2022/11/18 13:08:14;;;;;;;6.90;6.07;;;-0.20;99.90;;;;;;5197816;28;20449;-48
2022/11/18 13:17:50;;;;;;;9.00;6.20;;;-0.30;99.90;;;;;;5200863;28;20488;-48
2022/11/18 13:19:32;;;;;;;8.47;6.63;;;-0.40;99.90;;;;;;5199089;28;20450;-48
2022/11/18 13:24:52;;;;;;;9.40;6.83;;;-0.50;99.90;;;;;;5204650;28;20214;-48
2022/11/18 13:27:29;;;;;;;8.20;6.03;;;-0.50;99.90;;;;;;5207206;28;20430;-51
2022/11/18 13:30:04;;;;;;;7.87;6.00;;;-0.60;99.90;;;;;;5208960;28;20192;-50
2022/11/18 13:32:35;;;;;;;7.60;5.93;;;-0.60;99.90;;;;;;5206405;28;20514;-48
2022/11/18 13:35:16;;;;;;;7.13;6.17;;;-0.60;99.90;;;;;;5195238;28;20458;-51
2022/11/18 13:37:56;;;;;;;7.13;6.40;;;-0.60;99.90;;;;;;5195096;28;20563;-51